createdAt,value
2022-08-29T00:01:31.814Z,8.27
2022-08-29T00:04:01.215Z,8.63
2022-08-29T00:06:29.582Z,8.33
2022-08-29T00:08:57.699Z,8.20
2022-08-29T00:11:25.838Z,8.40
2022-08-29T00:13:53.955Z,7.73
2022-08-29T00:16:21.966Z,8.73
2022-08-29T00:18:49.967Z,8.43
2022-08-29T00:21:19.301Z,7.90
2022-08-29T00:23:47.293Z,7.90
2022-08-29T00:26:15.352Z,7.70
2022-08-29T00:28:43.353Z,7.77
2022-08-29T00:31:11.375Z,8.20
2022-08-29T00:33:39.710Z,8.30
2022-08-29T00:36:08.177Z,8.40
2022-08-29T00:38:38.518Z,8.50
2022-08-29T00:41:06.849Z,7.57
2022-08-29T00:43:37.312Z,8.60
2022-08-29T00:46:21.300Z,8.20
2022-08-29T00:48:55.605Z,9.07
2022-08-29T00:51:23.922Z,8.20
2022-08-29T00:53:58.897Z,8.10
2022-08-29T00:56:27.918Z,8.00
2022-08-29T00:59:01.710Z,8.60
2022-08-29T01:01:30.131Z,7.93
2022-08-29T01:03:58.257Z,8.10
2022-08-29T01:06:28.377Z,8.77
2022-08-29T01:08:58.151Z,9.50
2022-08-29T01:11:46.480Z,9.47
2022-08-29T01:14:15.335Z,9.20
2022-08-29T01:16:43.645Z,8.63
2022-08-29T01:19:20.489Z,7.50
2022-08-29T01:21:56.514Z,7.77
2022-08-29T01:24:36.637Z,8.57
2022-08-29T01:27:05.052Z,7.97
2022-08-29T01:29:33.201Z,8.90
2022-08-29T01:32:01.729Z,8.70
2022-08-29T01:34:30.707Z,8.77
2022-08-29T01:37:00.856Z,8.90
2022-08-29T01:39:33.540Z,8.03
2022-08-29T01:42:06.232Z,7.80
2022-08-29T01:44:34.575Z,8.87
2022-08-29T01:47:03.573Z,8.13
2022-08-29T01:49:32.910Z,8.40
2022-08-29T01:52:02.130Z,8.10
2022-08-29T01:54:32.275Z,7.77
2022-08-29T01:57:00.721Z,7.80
2022-08-29T01:59:30.405Z,7.77
2022-08-29T02:02:02.135Z,7.87
2022-08-29T02:04:30.464Z,7.57
2022-08-29T02:06:58.555Z,7.10
2022-08-29T02:09:27.063Z,7.57
2022-08-29T02:11:58.160Z,8.90
2022-08-29T02:14:26.485Z,8.50
2022-08-29T02:16:55.228Z,8.13
2022-08-29T02:19:23.535Z,8.00
2022-08-29T02:21:51.645Z,7.40
2022-08-29T02:24:25.939Z,7.60
2022-08-29T02:26:56.438Z,8.63
2022-08-29T02:29:25.406Z,7.83
2022-08-29T02:31:53.677Z,7.40
2022-08-29T02:34:21.970Z,7.70
2022-08-29T02:36:50.265Z,8.27
2022-08-29T02:39:19.214Z,8.00
2022-08-29T02:41:47.395Z,8.50
2022-08-29T02:44:16.726Z,7.63
2022-08-29T02:46:44.791Z,8.47
2022-08-29T02:49:12.915Z,8.27
2022-08-29T02:51:42.173Z,8.70
2022-08-29T02:54:12.038Z,7.93
2022-08-29T02:56:40.050Z,7.90
2022-08-29T02:59:08.839Z,8.63
2022-08-29T03:01:39.030Z,8.80
2022-08-29T03:04:07.521Z,8.70
2022-08-29T03:06:35.517Z,8.70
2022-08-29T03:09:03.601Z,7.77
2022-08-29T03:11:31.565Z,10.13
2022-08-29T03:13:59.558Z,8.80
2022-08-29T03:16:27.678Z,8.67
2022-08-29T03:18:57.109Z,7.70
2022-08-29T03:21:28.485Z,9.30
2022-08-29T03:23:57.308Z,9.40
2022-08-29T03:26:25.959Z,9.17
2022-08-29T03:28:54.224Z,9.80
2022-08-29T03:31:22.603Z,9.27
2022-08-29T03:33:50.914Z,8.60
2022-08-29T03:36:20.513Z,8.77
2022-08-29T03:38:49.665Z,9.73
2022-08-29T03:41:22.202Z,9.17
2022-08-29T03:43:50.226Z,10.17
2022-08-29T03:46:18.174Z,7.93
2022-08-29T03:48:46.504Z,9.20
2022-08-29T03:51:14.575Z,8.97
2022-08-29T03:53:44.047Z,9.30
2022-08-29T03:56:18.586Z,9.77
2022-08-29T03:58:52.615Z,9.57
2022-08-29T04:01:22.455Z,9.70
2022-08-29T04:03:50.919Z,8.10
2022-08-29T04:06:18.927Z,9.03
2022-08-29T04:08:48.556Z,9.10
2022-08-29T04:11:17.720Z,9.27
2022-08-29T04:13:46.028Z,9.33
2022-08-29T04:16:15.824Z,7.87
2022-08-29T04:18:44.768Z,7.83
2022-08-29T04:21:13.226Z,7.27
2022-08-29T04:23:42.062Z,8.27
2022-08-29T04:26:36.865Z,7.57
2022-08-29T04:29:05.421Z,8.80
2022-08-29T04:31:33.391Z,8.10
2022-08-29T04:34:01.394Z,8.23
2022-08-29T04:36:29.603Z,8.07
2022-08-29T04:38:57.989Z,8.10
2022-08-29T04:41:27.405Z,7.60
2022-08-29T04:43:55.441Z,8.20
2022-08-29T04:46:23.873Z,8.60
2022-08-29T04:48:53.104Z,7.47
2022-08-29T04:51:22.011Z,8.03
2022-08-29T04:53:51.963Z,7.43
2022-08-29T04:56:21.105Z,8.70
2022-08-29T04:58:52.042Z,8.00
2022-08-29T05:01:24.201Z,8.33
2022-08-29T05:03:54.347Z,6.67
2022-08-29T05:06:23.950Z,7.00
2022-08-29T05:08:58.826Z,7.00
2022-08-29T05:11:28.566Z,7.10
2022-08-29T05:13:58.575Z,6.30
2022-08-29T05:16:26.648Z,7.00
2022-08-29T05:18:54.572Z,6.53
2022-08-29T05:21:27.280Z,7.33
2022-08-29T05:23:56.468Z,7.20
2022-08-29T05:26:25.012Z,6.55
2022-08-29T05:28:52.964Z,6.95
2022-08-29T05:31:22.582Z,7.22
2022-08-29T05:33:50.687Z,6.63
2022-08-29T05:36:18.909Z,7.03
2022-08-29T05:38:47.510Z,6.53
2022-08-29T05:41:16.225Z,6.97
2022-08-29T05:43:44.517Z,6.20
2022-08-29T05:46:13.350Z,5.20
2022-08-29T05:48:49.739Z,5.25
2022-08-29T05:51:18.779Z,5.60
2022-08-29T05:53:47.685Z,5.72
2022-08-29T05:56:22.534Z,5.22
2022-08-29T05:58:50.552Z,6.05
2022-08-29T06:01:26.424Z,5.82
2022-08-29T06:03:57.330Z,4.90
2022-08-29T06:06:27.728Z,4.90
2022-08-29T06:08:57.336Z,5.55
2022-08-29T06:11:28.095Z,6.05
2022-08-29T06:13:56.987Z,5.50
2022-08-29T06:16:27.339Z,5.85
2022-08-29T06:18:57.315Z,5.38
2022-08-29T06:21:28.879Z,5.40
2022-08-29T06:23:57.088Z,6.10
2022-08-29T06:26:25.116Z,5.55
2022-08-29T06:28:53.181Z,5.38
2022-08-29T06:31:24.900Z,4.97
2022-08-29T06:33:54.001Z,5.05
2022-08-29T06:36:25.461Z,4.40
2022-08-29T06:38:53.991Z,5.93
2022-08-29T06:41:22.225Z,5.68
2022-08-29T06:43:50.228Z,5.15
2022-08-29T06:46:23.998Z,5.28
2022-08-29T06:48:52.660Z,5.22
2022-08-29T06:51:20.751Z,4.75
2022-08-29T06:53:50.294Z,4.80
2022-08-29T06:56:19.091Z,4.30
2022-08-29T06:58:48.384Z,4.85
2022-08-29T07:01:19.009Z,4.72
2022-08-29T07:03:47.552Z,5.20
2022-08-29T07:06:17.605Z,4.60
2022-08-29T07:08:55.180Z,5.03
2022-08-29T07:11:26.518Z,5.38
2022-08-29T07:13:56.753Z,4.70
2022-08-29T07:16:26.352Z,4.78
2022-08-29T07:18:54.778Z,5.13
2022-08-29T07:21:25.044Z,5.03
2022-08-29T07:23:54.798Z,5.15
2022-08-29T07:26:26.308Z,5.50
2022-08-29T07:28:56.906Z,6.07
2022-08-29T07:31:26.005Z,4.40
2022-08-29T07:34:01.935Z,4.85
2022-08-29T07:36:31.260Z,4.30
2022-08-29T07:38:59.342Z,5.63
2022-08-29T07:41:28.950Z,4.65
2022-08-29T07:43:57.036Z,4.45
2022-08-29T07:46:25.554Z,4.85
2022-08-29T07:48:54.206Z,4.57
2022-08-29T07:51:24.305Z,5.13
2022-08-29T07:53:52.994Z,5.05
2022-08-29T07:56:24.521Z,4.40
2022-08-29T07:58:54.986Z,5.47
2022-08-29T08:01:23.761Z,4.82
2022-08-29T08:03:52.866Z,4.18
2022-08-29T08:06:38.078Z,5.30
2022-08-29T08:09:09.182Z,4.03
2022-08-29T08:11:38.957Z,4.13
2022-08-29T08:14:08.815Z,4.38
2022-08-29T08:16:38.114Z,4.28
2022-08-29T08:21:54.581Z,4.50
2022-08-29T08:24:23.184Z,5.03
2022-08-29T08:26:51.385Z,4.13
2022-08-29T08:29:21.231Z,4.65
2022-08-29T08:31:51.801Z,4.53
2022-08-29T08:34:21.480Z,4.35
2022-08-29T08:36:50.677Z,4.40
2022-08-29T08:39:19.187Z,4.47
2022-08-29T08:41:54.542Z,4.75
2022-08-29T08:44:51.595Z,4.38
2022-08-29T08:47:25.808Z,4.03
2022-08-29T08:49:58.225Z,4.63
2022-08-29T08:52:34.744Z,4.10
2022-08-29T08:55:07.930Z,4.28
2022-08-29T08:57:42.151Z,4.65
2022-08-29T09:00:13.541Z,5.20
2022-08-29T09:02:51.634Z,4.13
2022-08-29T09:05:49.221Z,3.95
2022-08-29T09:08:28.102Z,4.20
2022-08-29T09:11:03.251Z,4.22
2022-08-29T09:13:46.844Z,4.00
2022-08-29T09:16:25.310Z,4.00
2022-08-29T09:18:54.516Z,3.95
2022-08-29T09:21:41.664Z,4.13
2022-08-29T09:24:44.990Z,4.28
2022-08-29T09:27:03.881Z,4.05
2022-08-29T09:29:32.477Z,4.70
2022-08-29T09:32:11.955Z,4.47
2022-08-29T09:35:07.467Z,4.53
2022-08-29T09:37:33.313Z,4.45
2022-08-29T09:40:07.306Z,4.25
2022-08-29T09:42:38.678Z,4.50
2022-08-29T09:45:18.259Z,3.72
2022-08-29T09:47:48.131Z,4.22
2022-08-29T09:50:24.773Z,3.65
2022-08-29T09:52:56.439Z,6.07
2022-08-29T09:55:30.454Z,4.10
2022-08-29T09:58:01.983Z,4.07
2022-08-29T10:00:34.044Z,3.70
2022-08-29T10:03:05.649Z,4.35
2022-08-29T10:05:41.443Z,4.20
2022-08-29T10:08:30.605Z,4.10
2022-08-29T10:11:02.921Z,4.25
2022-08-29T10:13:39.164Z,4.65
2022-08-29T10:16:18.506Z,4.07
2022-08-29T10:18:51.618Z,4.10
2022-08-29T10:25:05.093Z,4.03
2022-08-29T10:27:40.767Z,4.30
2022-08-29T10:30:11.877Z,4.00
2022-08-29T10:33:09.614Z,3.47
2022-08-29T10:35:52.437Z,4.30
2022-08-29T10:38:36.606Z,3.35
2022-08-29T10:41:15.678Z,4.10
2022-08-29T10:43:53.475Z,4.45
2022-08-29T10:46:42.273Z,4.13
2022-08-29T10:52:11.926Z,3.60
2022-08-29T10:54:51.957Z,3.95
2022-08-29T10:57:37.349Z,3.42
2022-08-29T11:00:12.182Z,3.60
2022-08-29T11:02:44.442Z,3.72
2022-08-29T11:05:17.604Z,3.72
2022-08-29T11:07:51.904Z,3.63
2022-08-29T11:10:25.455Z,3.90
2022-08-29T11:12:57.545Z,3.72
2022-08-29T11:15:32.311Z,3.90
2022-08-29T11:18:07.860Z,3.92
2022-08-29T11:20:43.134Z,3.72
2022-08-29T11:23:23.002Z,4.65
2022-08-29T11:25:51.538Z,4.00
2022-08-29T11:28:39.431Z,3.90
2022-08-29T11:31:13.177Z,4.60
2022-08-29T11:33:49.995Z,4.40
2022-08-29T11:36:34.938Z,3.33
2022-08-29T11:39:34.596Z,3.97
2022-08-29T11:42:06.360Z,3.97
2022-08-29T11:44:37.778Z,3.78
2022-08-29T11:47:40.814Z,3.70
2022-08-29T11:50:28.762Z,3.05
2022-08-29T11:52:59.601Z,4.05
2022-08-29T11:55:37.747Z,4.35
2022-08-29T11:58:43.426Z,3.70
2022-08-29T12:01:52.901Z,3.20
2022-08-29T12:04:53.913Z,4.03
2022-08-29T12:07:33.342Z,2.88
2022-08-29T12:10:03.554Z,3.65
2022-08-29T12:12:45.890Z,3.33
2022-08-29T12:15:52.740Z,3.17
2022-08-29T12:18:36.943Z,3.42
2022-08-29T12:21:34.804Z,3.25
2022-08-29T12:24:03.424Z,3.28
2022-08-29T12:26:43.487Z,3.67
2022-08-29T12:29:22.084Z,2.75
2022-08-29T12:32:22.810Z,3.58
2022-08-29T12:35:16.430Z,4.10
2022-08-29T12:37:58.795Z,3.47
2022-08-29T12:40:38.847Z,4.22
2022-08-29T12:43:29.652Z,3.65
2022-08-29T12:45:59.678Z,3.10
2022-08-29T12:48:33.366Z,3.50
2022-08-29T12:51:02.571Z,3.97
2022-08-29T12:53:33.382Z,4.50
2022-08-29T12:56:03.627Z,3.30
2022-08-29T12:58:37.517Z,3.50
2022-08-29T13:01:11.633Z,3.45
2022-08-29T13:03:39.754Z,3.92
2022-08-29T13:06:14.019Z,3.42
2022-08-29T13:08:42.163Z,3.70
2022-08-29T13:11:13.793Z,2.78
2022-08-29T13:13:41.795Z,3.70
2022-08-29T13:16:25.608Z,3.75
2022-08-29T13:19:10.170Z,3.42
2022-08-29T13:21:38.797Z,3.05
2022-08-29T13:24:12.689Z,3.92
2022-08-29T13:26:59.100Z,3.85
2022-08-29T13:29:37.371Z,3.72
2022-08-29T13:32:23.304Z,3.95
2022-08-29T13:35:03.083Z,15.02
2022-08-29T13:37:34.281Z,3.22
2022-08-29T13:40:31.492Z,4.03
2022-08-29T13:43:00.431Z,3.05
2022-08-29T13:45:29.170Z,4.07
2022-08-29T13:48:18.323Z,3.55
2022-08-29T13:53:15.694Z,3.85
2022-08-29T13:55:44.249Z,3.80
2022-08-29T13:58:15.002Z,3.45
2022-08-29T14:00:44.059Z,3.80
2022-08-29T14:03:16.648Z,3.60
2022-08-29T14:05:45.093Z,4.28
2022-08-29T14:08:14.019Z,3.40
2022-08-29T14:10:42.416Z,3.42
2022-08-29T14:13:10.318Z,3.38
2022-08-29T14:15:39.279Z,3.45
2022-08-29T14:18:07.403Z,4.03
2022-08-29T14:20:38.651Z,5.20
2022-08-29T14:23:09.404Z,3.53
2022-08-29T14:25:37.648Z,4.00
2022-08-29T14:28:05.847Z,3.78
2022-08-29T14:30:33.892Z,3.60
2022-08-29T14:33:01.863Z,3.70
2022-08-29T14:35:31.896Z,4.00
2022-08-29T14:38:04.140Z,4.05
2022-08-29T14:40:33.480Z,3.92
2022-08-29T14:43:02.805Z,4.22
2022-08-29T14:45:32.302Z,3.63
2022-08-29T14:48:00.280Z,3.90
2022-08-29T14:50:28.578Z,3.92
2022-08-29T14:52:56.586Z,3.70
2022-08-29T14:55:26.295Z,3.75
2022-08-29T14:57:54.691Z,3.63
2022-08-29T15:00:24.863Z,3.47
2022-08-29T15:02:53.461Z,3.90
2022-08-29T15:05:22.354Z,3.60
2022-08-29T15:07:50.646Z,3.97
2022-08-29T15:10:21.239Z,3.55
2022-08-29T15:12:50.681Z,4.00
2022-08-29T15:15:20.929Z,4.13
2022-08-29T15:17:48.956Z,3.35
2022-08-29T15:20:36.181Z,4.13
2022-08-29T15:23:04.872Z,4.43
2022-08-29T15:25:32.915Z,4.57
2022-08-29T15:28:06.091Z,3.78
2022-08-29T15:30:34.647Z,4.07
2022-08-29T15:33:05.887Z,4.05
2022-08-29T15:35:34.323Z,4.40
2022-08-29T15:38:02.685Z,3.60
2022-08-29T15:40:30.885Z,15.07
2022-08-29T15:42:59.128Z,3.50
2022-08-29T15:45:29.770Z,5.30
2022-08-29T15:48:00.974Z,4.32
2022-08-29T15:50:29.851Z,4.18
2022-08-29T15:52:57.910Z,4.25
2022-08-29T15:55:26.094Z,3.97
2022-08-29T15:57:53.975Z,3.42
2022-08-29T16:00:29.645Z,3.60
2022-08-29T16:03:01.133Z,3.92
2022-08-29T16:05:29.766Z,3.75
2022-08-29T16:07:57.875Z,3.85
2022-08-29T16:10:25.887Z,3.38
2022-08-29T16:12:54.156Z,3.80
2022-08-29T16:15:25.189Z,3.13
2022-08-29T16:17:53.675Z,3.10
2022-08-29T16:20:23.335Z,4.00
2022-08-29T16:23:01.899Z,4.75
2022-08-29T16:25:32.141Z,3.28
2022-08-29T16:28:01.111Z,3.53
2022-08-29T16:30:29.753Z,3.85
2022-08-29T16:32:58.279Z,3.50
2022-08-29T16:35:28.441Z,3.63
2022-08-29T16:38:00.414Z,3.95
2022-08-29T16:40:32.259Z,3.78
2022-08-29T16:43:01.640Z,4.00
2022-08-29T16:45:29.708Z,3.42
2022-08-29T16:47:57.988Z,4.22
2022-08-29T16:50:28.395Z,3.97
2022-08-29T16:52:56.459Z,3.28
2022-08-29T16:55:30.453Z,3.60
2022-08-29T16:58:16.377Z,3.45
2022-08-29T17:00:45.538Z,3.78
2022-08-29T17:03:18.060Z,3.33
2022-08-29T17:05:50.247Z,3.45
2022-08-29T17:08:17.746Z,3.20
2022-08-29T17:10:44.888Z,4.25
2022-08-29T17:13:12.113Z,3.60
2022-08-29T17:15:39.308Z,4.28
2022-08-29T17:18:07.884Z,5.95
2022-08-29T17:20:37.703Z,5.50
2022-08-29T17:23:10.179Z,3.78
2022-08-29T17:25:39.106Z,3.20
2022-08-29T17:28:17.626Z,3.67
2022-08-29T17:30:49.371Z,3.88
2022-08-29T17:33:17.700Z,3.85
2022-08-29T17:35:46.006Z,3.45
2022-08-29T17:38:16.397Z,3.55
2022-08-29T17:40:44.823Z,2.78
2022-08-29T17:43:14.085Z,3.63
2022-08-29T17:45:42.087Z,3.58
2022-08-29T17:48:10.160Z,3.40
2022-08-29T17:50:38.134Z,3.40
2022-08-29T17:53:06.426Z,4.30
2022-08-29T17:55:35.845Z,4.50
2022-08-29T17:58:03.915Z,5.10
2022-08-29T18:00:32.342Z,4.40
2022-08-29T18:03:00.614Z,3.87
2022-08-29T18:05:28.934Z,3.60
2022-08-29T18:07:57.095Z,4.20
2022-08-29T18:10:25.493Z,3.90
2022-08-29T18:12:54.791Z,4.40
2022-08-29T18:15:23.691Z,3.93
2022-08-29T18:17:51.838Z,5.10
2022-08-29T18:20:21.668Z,4.47
2022-08-29T18:22:49.798Z,4.53
2022-08-29T18:25:22.236Z,4.00
2022-08-29T18:27:51.586Z,4.17
2022-08-29T18:30:21.079Z,4.43
2022-08-29T18:32:49.062Z,4.13
2022-08-29T18:35:17.115Z,4.70
2022-08-29T18:37:45.086Z,4.70
2022-08-29T18:40:13.551Z,5.60
2022-08-29T18:42:41.737Z,5.30
2022-08-29T18:45:11.315Z,5.60
2022-08-29T18:47:40.659Z,4.40
2022-08-29T18:50:27.028Z,5.07
2022-08-29T18:52:55.299Z,4.57
2022-08-29T18:55:23.932Z,4.87
2022-08-29T18:57:53.536Z,4.27
2022-08-29T19:00:22.433Z,4.47
2022-08-29T19:02:51.998Z,5.10
2022-08-29T19:05:20.900Z,4.47
2022-08-29T19:07:48.951Z,4.40
2022-08-29T19:10:16.983Z,4.90
2022-08-29T19:12:47.039Z,4.40
2022-08-29T19:15:15.375Z,4.57
2022-08-29T19:17:43.973Z,4.30
2022-08-29T19:20:34.638Z,4.43
2022-08-29T19:23:03.589Z,5.03
2022-08-29T19:25:31.758Z,4.30
2022-08-29T19:28:00.156Z,3.67
2022-08-29T19:30:28.503Z,4.30
2022-08-29T19:32:56.483Z,4.70
2022-08-29T19:35:26.206Z,4.03
2022-08-29T19:37:54.342Z,4.60
2022-08-29T19:40:23.879Z,4.67
2022-08-29T19:42:52.187Z,4.70
2022-08-29T19:45:21.094Z,5.20
2022-08-29T19:47:49.831Z,4.87
2022-08-29T19:50:19.757Z,6.13
2022-08-29T19:52:49.593Z,6.63
2022-08-29T19:55:19.956Z,5.70
2022-08-29T19:57:48.398Z,5.43
2022-08-29T20:00:19.509Z,5.00
2022-08-29T20:02:47.823Z,5.77
2022-08-29T20:05:17.423Z,4.60
2022-08-29T20:07:46.160Z,5.60
2022-08-29T20:10:21.481Z,5.93
2022-08-29T20:12:51.203Z,4.90
2022-08-29T20:15:20.090Z,5.60
2022-08-29T20:17:48.150Z,5.23
2022-08-29T20:20:18.781Z,5.90
2022-08-29T20:22:47.646Z,5.90
2022-08-29T20:25:17.623Z,5.47
2022-08-29T20:27:46.617Z,5.27
2022-08-29T20:30:17.659Z,6.00
2022-08-29T20:32:49.412Z,6.00
2022-08-29T20:35:38.549Z,5.20
2022-08-29T20:38:06.247Z,5.33
2022-08-29T20:40:37.873Z,5.90
2022-08-29T20:43:06.256Z,5.80
2022-08-29T20:45:34.554Z,6.30
2022-08-29T20:48:02.594Z,6.17
2022-08-29T20:50:30.579Z,5.80
2022-08-29T20:52:58.551Z,5.73
2022-08-29T20:55:26.955Z,5.33
2022-08-29T20:57:56.276Z,5.37
2022-08-29T21:00:24.465Z,5.00
2022-08-29T21:03:09.997Z,6.10
2022-08-29T21:05:45.906Z,5.73
2022-08-29T21:08:19.567Z,5.20
2022-08-29T21:10:48.830Z,4.77
2022-08-29T21:13:19.233Z,5.20
2022-08-29T21:15:48.198Z,5.17
2022-08-29T21:18:20.251Z,4.97
2022-08-29T21:20:54.255Z,5.30
2022-08-29T21:23:27.364Z,4.80
2022-08-29T21:25:56.583Z,5.33
2022-08-29T21:28:27.655Z,7.53
2022-08-29T21:30:56.016Z,7.10
2022-08-29T21:33:23.990Z,6.10
2022-08-29T21:35:51.926Z,6.53
2022-08-29T21:38:19.910Z,6.27
2022-08-29T21:40:51.099Z,6.10
2022-08-29T21:43:20.837Z,5.80
2022-08-29T21:45:50.182Z,5.73
2022-08-29T21:48:18.379Z,5.93
2022-08-29T21:50:46.340Z,6.77
2022-08-29T21:53:15.414Z,6.17
2022-08-29T21:55:43.512Z,6.67
2022-08-29T21:58:11.543Z,6.50
2022-08-29T22:00:41.801Z,6.30
2022-08-29T22:03:13.130Z,5.90
2022-08-29T22:05:43.990Z,6.10
2022-08-29T22:08:13.892Z,5.40
2022-08-29T22:10:43.210Z,5.83
2022-08-29T22:13:11.181Z,5.90
2022-08-29T22:15:57.387Z,5.50
2022-08-29T22:18:27.610Z,5.10
2022-08-29T22:20:58.277Z,5.93
2022-08-29T22:23:26.226Z,5.10
2022-08-29T22:25:55.141Z,5.27
2022-08-29T22:28:23.787Z,5.67
2022-08-29T22:30:52.357Z,5.60
2022-08-29T22:33:20.661Z,5.87
2022-08-29T22:35:51.601Z,5.20
2022-08-29T22:38:19.657Z,5.87
2022-08-29T22:40:48.184Z,6.13
2022-08-29T22:43:16.493Z,5.70
2022-08-29T22:45:45.272Z,5.30
2022-08-29T22:48:16.353Z,5.27
2022-08-29T22:50:56.116Z,5.47
2022-08-29T22:53:27.693Z,6.20
2022-08-29T22:55:55.697Z,5.07
2022-08-29T22:58:23.681Z,5.20
2022-08-29T23:00:51.618Z,5.70
2022-08-29T23:03:19.811Z,5.57
2022-08-29T23:05:48.067Z,5.87
2022-08-29T23:08:17.150Z,5.53
2022-08-29T23:10:48.958Z,5.53
2022-08-29T23:13:17.874Z,5.13
2022-08-29T23:15:46.020Z,4.50
2022-08-29T23:18:14.021Z,5.50
2022-08-29T23:20:41.993Z,4.13
2022-08-29T23:23:13.565Z,5.00
2022-08-29T23:25:41.534Z,4.20
2022-08-29T23:28:10.836Z,4.60
2022-08-29T23:30:39.292Z,4.80
2022-08-29T23:33:07.250Z,4.63
2022-08-29T23:35:37.074Z,4.20
2022-08-29T23:38:07.669Z,4.20
2022-08-29T23:40:36.441Z,4.40
2022-08-29T23:43:05.263Z,3.93
2022-08-29T23:45:34.566Z,4.60
2022-08-29T23:48:02.591Z,3.50
2022-08-29T23:50:30.576Z,4.00
2022-08-29T23:52:58.575Z,4.00
2022-08-29T23:55:26.532Z,4.13
2022-08-29T23:57:54.522Z,3.80
